Terminal Aerodrome Forecast
Issued by NWS

Home | Current Version | Previous Version | Text Only | Print | Product List | Glossary On
Versions: 1 2 3 4 5 6 7 8 9 10 11 12 13
000
FTUS44 KLIX 040533
TAFMCB
TAF
KMCB 040533Z 0406/0506 VRB03KT P6SM SCT250
      TEMPO 0409/0413 4SM BR
     FM041500 12005KT P6SM SCT025
     FM041800 16006KT P6SM VCSH SCT040 BKN250
     FM050100 18005KT P6SM SCT110 BKN250=

USA.gov is the U.S. government's official web portal to all federal, state and local government web resources and services.